createdAt,value
2018-09-13T00:00:25.156Z,5.75
2018-09-13T00:05:19.558Z,6.05
2018-09-13T00:07:47.024Z,5.57
2018-09-13T00:10:14.433Z,6.03
2018-09-13T00:12:41.886Z,6.90
2018-09-13T00:15:09.357Z,6.10
2018-09-13T00:17:36.870Z,5.72
2018-09-13T00:20:04.406Z,5.68
2018-09-13T00:22:31.894Z,5.78
2018-09-13T00:24:59.407Z,6.72
2018-09-13T00:27:26.865Z,5.65
2018-09-13T00:29:54.317Z,6.53
2018-09-13T00:32:21.758Z,6.20
2018-09-13T00:34:49.200Z,5.97
2018-09-13T00:37:16.644Z,6.10
2018-09-13T00:39:44.392Z,4.95
2018-09-13T00:42:11.996Z,5.70
2018-09-13T00:44:39.480Z,5.62
2018-09-13T00:47:06.910Z,5.80
2018-09-13T00:49:34.388Z,5.15
2018-09-13T00:52:01.883Z,4.97
2018-09-13T00:54:29.364Z,4.65
2018-09-13T00:56:56.860Z,5.37
2018-09-13T00:59:24.272Z,4.60
2018-09-13T01:01:51.700Z,5.57
2018-09-13T01:04:19.145Z,3.95
2018-09-13T01:06:46.634Z,4.97
2018-09-13T01:09:14.105Z,4.93
2018-09-13T01:11:41.557Z,5.25
2018-09-13T01:14:09.088Z,5.00
2018-09-13T01:16:37.104Z,4.32
2018-09-13T01:19:04.584Z,6.32
2018-09-13T01:21:32.047Z,5.32
2018-09-13T01:23:59.532Z,5.12
2018-09-13T01:26:26.932Z,6.43
2018-09-13T01:28:54.357Z,5.87
2018-09-13T01:31:21.804Z,6.65
2018-09-13T01:33:49.231Z,4.65
2018-09-13T01:36:16.726Z,4.85
2018-09-13T01:38:44.209Z,4.97
2018-09-13T01:41:11.652Z,4.62
2018-09-13T01:43:39.115Z,6.12
2018-09-13T01:46:06.557Z,4.85
2018-09-13T01:48:34.088Z,5.85
2018-09-13T01:51:01.571Z,4.12
2018-09-13T01:53:28.975Z,5.00
2018-09-13T01:55:56.724Z,6.10
2018-09-13T01:58:24.183Z,5.32
2018-09-13T02:00:51.744Z,6.15
2018-09-13T02:03:19.187Z,4.93
2018-09-13T02:05:46.656Z,5.40
2018-09-13T02:08:14.064Z,6.75
2018-09-13T02:10:41.528Z,4.45
2018-09-13T02:13:09.020Z,4.62
2018-09-13T02:15:36.447Z,4.30
2018-09-13T02:18:04.179Z,6.05
2018-09-13T02:20:31.627Z,5.45
2018-09-13T02:22:59.184Z,5.60
2018-09-13T02:42:36.159Z,5.60
2018-09-13T02:45:03.799Z,4.15
2018-09-13T02:47:31.276Z,4.87
2018-09-13T02:49:58.730Z,8.10
2018-09-13T02:52:26.197Z,4.75
2018-09-13T02:54:53.702Z,5.00
2018-09-13T02:57:21.255Z,6.68
2018-09-13T02:59:48.766Z,6.15
2018-09-13T03:02:16.211Z,5.12
2018-09-13T03:04:43.614Z,6.10
2018-09-13T03:07:11.064Z,6.28
2018-09-13T03:09:38.611Z,7.87
2018-09-13T03:12:06.010Z,9.27
2018-09-13T03:14:33.472Z,5.72
2018-09-13T03:17:00.936Z,5.05
2018-09-13T03:19:28.416Z,4.82
2018-09-13T03:21:55.812Z,5.65
2018-09-13T03:24:23.292Z,5.32
2018-09-13T03:26:50.736Z,5.15
2018-09-13T03:29:18.181Z,5.50
2018-09-13T03:31:45.686Z,6.15
2018-09-13T03:34:13.136Z,5.95
2018-09-13T03:36:40.816Z,4.72
2018-09-13T03:39:08.303Z,5.03
2018-09-13T03:41:35.770Z,5.20
2018-09-13T03:44:03.239Z,5.35
2018-09-13T03:46:30.661Z,4.55
2018-09-13T03:48:58.093Z,5.43
2018-09-13T03:51:25.581Z,6.57
2018-09-13T03:53:53.041Z,6.55
2018-09-13T03:56:20.573Z,4.80
2018-09-13T03:58:48.236Z,5.25
2018-09-13T04:01:15.867Z,5.25
2018-09-13T04:03:43.297Z,5.05
2018-09-13T04:06:10.774Z,4.93
2018-09-13T04:08:38.228Z,4.53
2018-09-13T04:11:05.747Z,5.40
2018-09-13T04:13:33.193Z,6.72
2018-09-13T04:16:00.666Z,5.65
2018-09-13T04:18:28.160Z,4.50
2018-09-13T04:20:55.602Z,4.53
2018-09-13T04:23:23.096Z,4.60
2018-09-13T04:25:50.577Z,4.62
2018-09-13T04:28:18.059Z,5.12
2018-09-13T04:30:45.499Z,4.03
2018-09-13T04:33:12.945Z,4.53
2018-09-13T04:35:40.484Z,5.25
2018-09-13T04:38:07.900Z,4.68
2018-09-13T04:40:35.344Z,5.68
2018-09-13T04:43:02.833Z,5.53
2018-09-13T04:45:30.342Z,5.57
2018-09-13T04:47:57.811Z,4.47
2018-09-13T04:50:25.229Z,5.30
2018-09-13T04:52:52.738Z,4.87
2018-09-13T04:55:20.162Z,5.40
2018-09-13T04:57:47.609Z,7.28
2018-09-13T05:00:15.066Z,5.15
2018-09-13T05:02:42.439Z,6.62
2018-09-13T05:05:09.906Z,7.00
2018-09-13T05:07:37.355Z,5.90
2018-09-13T05:10:04.841Z,5.80
2018-09-13T05:12:32.314Z,5.32
2018-09-13T05:14:59.745Z,6.30
2018-09-13T05:17:27.222Z,7.15
2018-09-13T05:19:54.663Z,6.57
2018-09-13T05:22:22.152Z,6.25
2018-09-13T05:24:49.666Z,5.70
2018-09-13T05:27:17.096Z,7.70
2018-09-13T05:29:44.540Z,6.70
2018-09-13T05:32:12.036Z,4.85
2018-09-13T05:34:39.460Z,6.25
2018-09-13T05:37:06.891Z,5.95
2018-09-13T05:39:34.352Z,7.10
2018-09-13T05:42:01.811Z,8.35
2018-09-13T05:44:29.284Z,9.73
2018-09-13T05:46:56.703Z,5.45
2018-09-13T05:49:24.144Z,6.30
2018-09-13T05:51:52.586Z,8.07
2018-09-13T05:54:20.011Z,5.78
2018-09-13T05:56:47.492Z,5.68
2018-09-13T05:59:14.977Z,5.82
2018-09-13T06:01:42.486Z,6.57
2018-09-13T06:04:10.400Z,7.07
2018-09-13T06:06:38.810Z,9.57
2018-09-13T06:09:06.288Z,5.65
2018-09-13T06:11:33.834Z,8.38
2018-09-13T06:14:01.275Z,7.70
2018-09-13T06:16:28.776Z,6.97
2018-09-13T06:18:56.463Z,7.22
2018-09-13T06:21:24.042Z,6.10
2018-09-13T06:23:51.554Z,8.98
2018-09-13T06:26:19.004Z,7.70
2018-09-13T06:28:46.565Z,9.05
2018-09-13T06:31:14.019Z,7.00
2018-09-13T06:33:41.621Z,7.50
2018-09-13T06:36:09.068Z,7.32
2018-09-13T06:38:36.657Z,6.93
2018-09-13T06:41:04.245Z,7.70
2018-09-13T06:43:31.697Z,6.53
2018-09-13T06:45:59.207Z,6.32
2018-09-13T06:48:26.714Z,6.78
2018-09-13T06:50:54.151Z,6.20
2018-09-13T06:53:21.642Z,8.45
2018-09-13T06:55:49.120Z,7.43
2018-09-13T06:58:16.575Z,5.60
2018-09-13T07:00:44.053Z,7.97
2018-09-13T07:03:12.831Z,7.75
2018-09-13T07:05:40.309Z,6.82
2018-09-13T07:08:07.975Z,8.73
2018-09-13T07:10:35.417Z,7.35
2018-09-13T07:13:02.950Z,7.75
2018-09-13T07:15:30.399Z,6.70
2018-09-13T07:17:57.837Z,5.60
2018-09-13T07:20:25.377Z,8.23
2018-09-13T07:22:53.740Z,7.78
2018-09-13T07:25:21.259Z,7.62
2018-09-13T07:27:48.744Z,8.90
2018-09-13T07:30:16.292Z,8.23
2018-09-13T07:32:43.842Z,7.80
2018-09-13T07:35:12.259Z,9.90
2018-09-13T07:37:40.818Z,8.65
2018-09-13T07:40:08.389Z,8.00
2018-09-13T07:42:36.733Z,11.40
2018-09-13T07:52:25.462Z,10.52
2018-09-13T07:54:52.989Z,16.30
2018-09-13T07:57:20.469Z,15.15
2018-09-13T07:59:48.217Z,12.40
2018-09-13T08:02:15.761Z,11.85
2018-09-13T08:04:43.255Z,14.65
2018-09-13T08:09:37.716Z,12.63
2018-09-13T08:12:06.083Z,19.60
2018-09-13T08:19:27.434Z,23.33
2018-09-13T08:21:55.496Z,17.52
2018-09-13T08:29:17.075Z,17.58
2018-09-13T08:34:11.524Z,16.95
2018-09-13T08:36:39.043Z,27.27
2018-09-13T08:39:07.785Z,26.45
2018-09-13T08:41:35.436Z,20.53
2018-09-13T08:53:50.890Z,22.70
2018-09-13T08:56:18.353Z,17.57
2018-09-13T09:03:39.794Z,19.90
2018-09-13T09:06:07.376Z,20.85
2018-09-13T09:08:34.856Z,22.52
2018-09-13T09:11:02.417Z,16.73
2018-09-13T09:13:29.870Z,12.95
2018-09-13T09:15:58.636Z,13.30
2018-09-13T09:18:26.200Z,16.95
2018-09-13T09:20:53.639Z,18.70
2018-09-13T09:23:21.081Z,13.85
2018-09-13T09:25:48.576Z,14.07
2018-09-13T09:28:15.997Z,16.23
2018-09-13T09:30:43.612Z,13.62
2018-09-13T09:33:11.103Z,13.15
2018-09-13T09:35:39.432Z,12.10
2018-09-13T09:38:06.856Z,8.40
2018-09-13T09:45:28.511Z,13.20
2018-09-13T09:47:55.983Z,12.30
2018-09-13T09:50:24.392Z,12.40
2018-09-13T09:52:51.622Z,12.63
2018-09-13T09:55:19.084Z,12.75
2018-09-13T09:57:46.589Z,17.08
2018-09-13T10:00:14.196Z,13.82
2018-09-13T10:02:41.626Z,13.45
2018-09-13T10:05:09.055Z,11.55
2018-09-13T10:07:36.744Z,12.43
2018-09-13T10:10:04.306Z,10.13
2018-09-13T10:12:31.770Z,8.90
2018-09-13T10:14:59.278Z,8.73
2018-09-13T10:20:35.671Z,7.87
2018-09-13T10:26:14.932Z,7.18
2018-09-13T10:28:48.189Z,12.50
2018-09-13T10:34:15.675Z,7.28
2018-09-13T10:36:48.803Z,13.85
2018-09-13T10:42:30.264Z,7.70
2018-09-13T10:47:56.490Z,6.22
2018-09-13T10:50:17.430Z,12.02
2018-09-13T10:52:44.893Z,15.05
2018-09-13T10:55:12.485Z,12.32
2018-09-13T10:57:40.661Z,15.75
2018-09-13T11:00:08.192Z,13.45
2018-09-13T11:02:35.717Z,16.20
2018-09-13T11:05:03.186Z,16.00
2018-09-13T11:07:30.624Z,15.85
2018-09-13T11:09:58.115Z,17.10
2018-09-13T11:12:25.611Z,14.23
2018-09-13T11:14:53.104Z,17.05
2018-09-13T11:17:21.757Z,14.15
2018-09-13T11:19:49.327Z,15.65
2018-09-13T11:22:16.802Z,17.75
2018-09-13T11:24:44.268Z,15.43
2018-09-13T11:27:11.718Z,15.05
2018-09-13T11:29:39.173Z,14.27
2018-09-13T11:32:06.669Z,14.73
2018-09-13T11:34:34.995Z,15.30
2018-09-13T11:37:02.496Z,17.75
2018-09-13T11:39:29.951Z,18.45
2018-09-13T11:41:57.901Z,16.10
2018-09-13T11:44:25.384Z,19.45
2018-09-13T11:46:54.053Z,21.20
2018-09-13T11:49:21.528Z,16.02
2018-09-13T11:51:49.044Z,11.45
2018-09-13T11:54:16.456Z,12.63
2018-09-13T11:56:43.968Z,12.85
2018-09-13T11:59:11.517Z,13.90
2018-09-13T12:01:39.060Z,13.70
2018-09-13T12:04:06.529Z,13.25
2018-09-13T12:06:33.938Z,14.13
2018-09-13T12:09:01.417Z,14.63
2018-09-13T12:11:28.887Z,16.20
2018-09-13T12:13:56.351Z,22.00
2018-09-13T12:16:23.804Z,25.23
2018-09-13T12:18:51.534Z,27.10
2018-09-13T12:21:18.875Z,24.52
2018-09-13T12:23:46.324Z,22.70
2018-09-13T12:26:13.774Z,22.00
2018-09-13T12:28:41.286Z,21.17
2018-09-13T12:31:08.776Z,21.58
2018-09-13T12:33:36.319Z,18.65
2018-09-13T12:36:03.882Z,18.98
2018-09-13T12:38:31.295Z,19.83
2018-09-13T12:40:58.844Z,17.95
2018-09-13T12:43:27.210Z,14.38
2018-09-13T12:45:54.760Z,14.90
2018-09-13T12:48:22.253Z,18.10
2018-09-13T12:50:49.785Z,11.12
2018-09-13T12:53:17.371Z,10.60
2018-09-13T12:58:11.889Z,10.88
2018-09-13T13:00:39.299Z,11.07
2018-09-13T13:03:06.804Z,10.60
2018-09-13T13:05:34.451Z,12.15
2018-09-13T13:08:01.963Z,10.20
2018-09-13T13:10:30.244Z,10.60
2018-09-13T13:12:57.858Z,11.35
2018-09-13T13:15:25.329Z,9.98
2018-09-13T13:17:52.857Z,8.43
2018-09-13T13:20:20.423Z,8.23
2018-09-13T13:22:47.905Z,8.07
2018-09-13T13:25:15.435Z,8.88
2018-09-13T13:27:43.017Z,10.25
2018-09-13T13:30:10.409Z,7.40
2018-09-13T13:32:37.852Z,8.73
2018-09-13T13:35:05.290Z,7.18
2018-09-13T13:37:32.725Z,8.13
2018-09-13T13:40:00.456Z,9.18
2018-09-13T13:42:28.092Z,11.70
2018-09-13T13:44:55.688Z,10.05
2018-09-13T13:47:23.271Z,10.93
2018-09-13T13:49:50.804Z,11.63
2018-09-13T13:52:18.276Z,9.82
2018-09-13T13:54:45.722Z,7.10
2018-09-13T13:57:13.154Z,10.80
2018-09-13T13:59:40.678Z,8.05
2018-09-13T14:02:08.191Z,8.52
2018-09-13T14:04:35.898Z,7.90
2018-09-13T14:07:03.344Z,7.57
2018-09-13T14:09:31.076Z,9.88
2018-09-13T14:11:58.559Z,7.45
2018-09-13T14:16:53.185Z,7.45
2018-09-13T14:19:20.844Z,10.60
2018-09-13T14:21:49.249Z,9.43
2018-09-13T14:24:16.703Z,10.80
2018-09-13T14:26:44.251Z,11.52
2018-09-13T14:29:11.871Z,9.77
2018-09-13T14:31:39.354Z,9.30
2018-09-13T14:34:06.848Z,6.95
2018-09-13T14:36:34.461Z,9.82
2018-09-13T14:39:02.037Z,7.97
2018-09-13T14:41:29.476Z,7.50
2018-09-13T14:43:56.954Z,7.50
2018-09-13T14:46:24.429Z,8.68
2018-09-13T14:48:51.888Z,7.70
2018-09-13T14:51:19.327Z,9.80
2018-09-13T14:53:46.856Z,9.60
2018-09-13T14:56:14.389Z,8.55
2018-09-13T14:58:41.782Z,10.95
2018-09-13T15:01:09.251Z,12.15
2018-09-13T15:03:36.926Z,10.68
2018-09-13T15:06:04.394Z,8.15
2018-09-13T15:08:31.882Z,8.98
2018-09-13T15:10:59.850Z,8.13
2018-09-13T15:13:27.279Z,8.65
2018-09-13T15:15:54.735Z,9.15
2018-09-13T15:18:22.247Z,7.55
2018-09-13T15:20:49.697Z,9.20
2018-09-13T15:23:17.335Z,10.13
2018-09-13T15:25:44.859Z,6.90
2018-09-13T15:28:12.663Z,7.47
2018-09-13T15:30:40.056Z,8.68
2018-09-13T15:33:07.714Z,8.40
2018-09-13T15:35:35.258Z,7.18
2018-09-13T15:38:02.826Z,7.40
2018-09-13T15:40:30.493Z,8.13
2018-09-13T15:42:57.960Z,9.23
2018-09-13T15:45:25.366Z,8.10
2018-09-13T15:47:52.919Z,7.15
2018-09-13T15:50:20.440Z,8.30
2018-09-13T15:52:47.951Z,7.78
2018-09-13T15:55:15.519Z,7.97
2018-09-13T15:57:43.076Z,6.62
2018-09-13T16:00:10.569Z,8.23
2018-09-13T16:02:38.015Z,7.15
2018-09-13T16:05:05.475Z,7.25
2018-09-13T16:07:33.083Z,7.37
2018-09-13T16:10:00.720Z,6.10
2018-09-13T16:12:28.233Z,8.95
2018-09-13T16:14:55.647Z,8.70
2018-09-13T16:17:23.319Z,18.58
2018-09-13T16:19:51.464Z,10.63
2018-09-13T16:22:19.440Z,11.15
2018-09-13T16:24:46.897Z,9.60
2018-09-13T16:27:14.398Z,8.75
2018-09-13T16:29:41.861Z,10.35
2018-09-13T16:32:09.353Z,9.10
2018-09-13T16:34:36.815Z,12.60
2018-09-13T16:37:05.164Z,9.70
2018-09-13T16:42:42.750Z,6.18
2018-09-13T16:45:10.162Z,12.52
2018-09-13T16:50:31.084Z,5.40
2018-09-13T16:52:59.315Z,8.38
2018-09-13T16:55:26.840Z,7.37
2018-09-13T16:57:54.305Z,5.62
2018-09-13T17:00:21.813Z,5.75
2018-09-13T17:02:50.102Z,7.85
2018-09-13T17:05:17.567Z,7.68
2018-09-13T17:07:45.216Z,9.10
2018-09-13T17:10:13.443Z,8.98
2018-09-13T17:12:41.138Z,6.35
2018-09-13T17:15:08.662Z,6.93
2018-09-13T17:17:36.412Z,6.20
2018-09-13T17:20:03.974Z,5.60
2018-09-13T17:22:31.772Z,7.05
2018-09-13T17:24:59.293Z,5.62
2018-09-13T17:27:26.768Z,5.72
2018-09-13T17:29:54.234Z,6.72
2018-09-13T17:32:21.834Z,7.18
2018-09-13T17:34:49.383Z,8.20
2018-09-13T17:37:16.937Z,9.90
2018-09-13T17:39:44.333Z,6.60
2018-09-13T17:42:11.770Z,5.72
2018-09-13T17:44:39.295Z,8.43
2018-09-13T17:47:06.907Z,9.93
2018-09-13T17:49:34.450Z,6.80
2018-09-13T17:52:02.009Z,7.87
2018-09-13T17:54:30.030Z,8.15
2018-09-13T17:56:57.490Z,6.72
2018-09-13T17:59:24.957Z,8.18
2018-09-13T18:01:52.463Z,6.15
2018-09-13T18:04:19.924Z,6.50
2018-09-13T18:06:47.465Z,5.78
2018-09-13T18:09:14.924Z,7.28
2018-09-13T18:11:42.410Z,6.35
2018-09-13T18:14:09.901Z,5.97
2018-09-13T18:16:37.380Z,6.68
2018-09-13T18:19:04.875Z,6.75
2018-09-13T18:21:32.402Z,5.32
2018-09-13T18:24:00.341Z,4.93
2018-09-13T18:26:28.065Z,4.03
2018-09-13T18:31:22.543Z,5.90
2018-09-13T18:33:50.015Z,4.62
2018-09-13T18:36:18.602Z,5.05
2018-09-13T18:38:46.182Z,5.47
2018-09-13T18:41:13.583Z,5.07
2018-09-13T18:43:41.036Z,5.30
2018-09-13T18:46:08.485Z,7.18
2018-09-13T18:48:35.988Z,7.93
2018-09-13T18:51:03.435Z,6.07
2018-09-13T18:53:31.165Z,5.30
2018-09-13T18:55:58.640Z,5.87
2018-09-13T18:58:26.161Z,5.65
2018-09-13T19:00:53.665Z,6.60
2018-09-13T19:03:21.150Z,5.60
2018-09-13T19:05:48.675Z,7.50
2018-09-13T19:08:16.185Z,5.45
2018-09-13T19:10:43.694Z,8.30
2018-09-13T19:13:11.186Z,7.15
2018-09-13T19:15:39.532Z,4.72
2018-09-13T19:18:07.032Z,7.40
2018-09-13T19:20:34.560Z,7.47
2018-09-13T19:23:02.065Z,6.65
2018-09-13T19:25:29.569Z,6.47
2018-09-13T19:27:57.064Z,7.10
2018-09-13T19:30:24.475Z,6.75
2018-09-13T19:32:52.041Z,7.60
2018-09-13T19:35:19.485Z,6.70
2018-09-13T19:37:47.176Z,5.00
2018-09-13T19:40:14.659Z,5.62
2018-09-13T19:42:42.169Z,5.55
2018-09-13T19:45:09.620Z,4.05
2018-09-13T19:47:37.097Z,5.65
2018-09-13T19:50:04.648Z,6.45
2018-09-13T19:52:32.110Z,5.25
2018-09-13T19:54:59.552Z,3.90
2018-09-13T19:57:27.563Z,7.57
2018-09-13T19:59:56.135Z,5.95
2018-09-13T20:02:23.624Z,5.07
2018-09-13T20:04:51.209Z,4.90
2018-09-13T20:07:18.703Z,5.12
2018-09-13T20:09:46.213Z,5.45
2018-09-13T20:12:13.764Z,6.00
2018-09-13T20:14:41.292Z,7.07
2018-09-13T20:17:08.858Z,4.57
2018-09-13T20:19:36.604Z,4.12
2018-09-13T20:22:04.080Z,5.22
2018-09-13T20:24:31.827Z,3.35
2018-09-13T20:26:59.228Z,5.47
2018-09-13T20:29:26.884Z,4.35
2018-09-13T20:31:54.528Z,3.58
2018-09-13T20:34:21.946Z,4.37
2018-09-13T20:36:49.553Z,3.15
2018-09-13T20:39:17.206Z,6.35
2018-09-13T20:41:44.654Z,3.47
2018-09-13T20:44:12.184Z,3.47
2018-09-13T20:46:39.804Z,4.05
2018-09-13T20:49:07.198Z,3.10
2018-09-13T20:51:34.745Z,5.00
2018-09-13T20:54:02.235Z,5.53
2018-09-13T20:56:29.680Z,8.52
2018-09-13T20:58:57.173Z,6.12
2018-09-13T21:01:24.851Z,9.52
2018-09-13T21:03:52.414Z,4.20
2018-09-13T21:06:19.843Z,4.25
2018-09-13T21:08:47.596Z,15.55
2018-09-13T21:11:15.194Z,5.20
2018-09-13T21:13:42.663Z,3.90
2018-09-13T21:16:10.148Z,5.53
2018-09-13T21:18:37.655Z,4.03
2018-09-13T21:21:05.100Z,4.85
2018-09-13T21:23:32.592Z,3.70
2018-09-13T21:26:00.044Z,3.75
2018-09-13T21:28:27.592Z,4.75
2018-09-13T21:30:55.105Z,5.47
2018-09-13T21:33:22.577Z,4.15
2018-09-13T21:35:50.159Z,5.32
2018-09-13T21:38:17.630Z,6.22
2018-09-13T21:40:45.076Z,11.63
2018-09-13T21:43:12.528Z,4.75
2018-09-13T21:45:40.021Z,7.05
2018-09-13T21:48:07.535Z,14.55
2018-09-13T21:50:34.942Z,14.32
2018-09-13T21:53:02.552Z,6.32
2018-09-13T21:55:30.151Z,6.78
2018-09-13T21:57:57.658Z,5.90
2018-09-13T22:00:25.129Z,5.22
2018-09-13T22:02:52.539Z,5.82
2018-09-13T22:05:20.086Z,5.25
2018-09-13T22:07:47.720Z,9.85
2018-09-13T22:10:15.243Z,6.82
2018-09-13T22:12:42.744Z,6.40
2018-09-13T22:15:10.344Z,5.43
2018-09-13T22:17:37.795Z,7.30
2018-09-13T22:20:05.267Z,5.28
2018-09-13T22:22:32.704Z,4.93
2018-09-13T22:25:00.106Z,5.37
2018-09-13T22:27:27.564Z,5.60
2018-09-13T22:29:55.004Z,3.97
2018-09-13T22:32:22.480Z,4.55
2018-09-13T22:34:49.959Z,5.32
2018-09-13T22:37:17.446Z,5.75
2018-09-13T22:39:44.969Z,5.82
2018-09-13T22:42:12.400Z,5.45
2018-09-13T22:44:39.872Z,6.87
2018-09-13T22:47:07.320Z,3.83
2018-09-13T22:49:34.789Z,5.37
2018-09-13T22:52:02.238Z,6.70
2018-09-13T22:54:29.663Z,4.95
2018-09-13T22:56:57.200Z,7.07
2018-09-13T22:59:24.691Z,6.22
2018-09-13T23:01:52.163Z,5.90
2018-09-13T23:04:19.640Z,4.97
2018-09-13T23:06:47.132Z,4.90
2018-09-13T23:09:14.599Z,7.25
2018-09-13T23:11:42.077Z,6.03
2018-09-13T23:14:09.572Z,11.02
2018-09-13T23:16:37.049Z,10.90
2018-09-13T23:19:04.563Z,4.95
2018-09-13T23:21:32.060Z,6.05
2018-09-13T23:23:59.532Z,8.10
2018-09-13T23:26:27.075Z,5.57
2018-09-13T23:28:54.526Z,6.07
